Jibacoa — EA5881 — position and weather

sailwx.info

Track history (hours):
 
Tides and Currents Weather Stations Pressure Air Temp Water Temp Dewpoint Dewpoint Depression Visibility Wind Speed Wind Dir Waves Ship Positions

Jibacoa

Last reported at 2018-Jun-16 11:26 UTC. Time now 2018-Jun-23 12:24 UTC.
Position N 35°53' W 005°19'.

Length 13 m.

Type: Sailing vessel. MMSI: 224073240.

Date/timePositionNaut miles runAvg speedWind from/ knotsBaromVisibWave heightAir tempDewpointWater temp
2018-Jun-16 11:26N 35°53' W 005°19'1 2.0
2018-Jun-16 11:00N 35°54' W 005°19'  
2018-Jun-09 20:01N 35°58' W 005°18'0 6.8
2018-Jun-09 19:59N 35°57' W 005°18'3 5.9
2018-Jun-09 19:28N 35°54' W 005°19'1 2.0
2018-Jun-09 19:00N 35°53' W 005°19'0 0.0
2018-Jun-09 18:30N 35°53' W 005°19'0 0.0
2018-Jun-09 17:54N 35°53' W 005°19'0 0.0
2018-Jun-09 17:30N 35°53' W 005°19'0 0.0
2018-Jun-09 17:00N 35°53' W 005°19'0 0.0
2018-Jun-09 16:30N 35°53' W 005°19'0 0.0
2018-Jun-09 16:00N 35°53' W 005°19'5 4.6
2018-Jun-09 15:00N 35°58' W 005°21'  
Track history (hours):
 
Tides and Currents Weather Stations Pressure Air Temp Water Temp Dewpoint Dewpoint Depression Visibility Wind Speed Wind Dir Waves Ship Positions

Jibacoa

Last reported at 2018-Jun-16 11:26 UTC. Time now 2018-Jun-23 12:24 UTC.
Position N 35°53' W 005°19'.

Length 13 m.

Type: Sailing vessel. MMSI: 224073240.

Date/timePositionNaut miles runAvg speedWind from/ knotsBaromVisibWave heightAir tempDewpointWater temp
2018-Jun-16 11:26N 35°53' W 005°19'1 2.0
2018-Jun-16 11:00N 35°54' W 005°19'  
2018-Jun-09 20:01N 35°58' W 005°18'0 6.8
2018-Jun-09 19:59N 35°57' W 005°18'3 5.9
2018-Jun-09 19:28N 35°54' W 005°19'1 2.0
2018-Jun-09 19:00N 35°53' W 005°19'0 0.0
2018-Jun-09 18:30N 35°53' W 005°19'0 0.0
2018-Jun-09 17:54N 35°53' W 005°19'0 0.0
2018-Jun-09 17:30N 35°53' W 005°19'0 0.0
2018-Jun-09 17:00N 35°53' W 005°19'0 0.0
2018-Jun-09 16:30N 35°53' W 005°19'0 0.0
2018-Jun-09 16:00N 35°53' W 005°19'5 4.6
2018-Jun-09 15:00N 35°58' W 005°21'  

Dump ship's entire track history